createdAt,value
2018-06-24T00:00:10.820Z,74.24
2018-06-24T00:01:10.797Z,74.33
2018-06-24T00:03:05.101Z,74.24
2018-06-24T00:04:05.003Z,75.10
2018-06-24T00:05:59.452Z,74.72
2018-06-24T00:06:59.142Z,74.91
2018-06-24T00:08:53.463Z,74.68
2018-06-24T00:09:53.308Z,74.72
2018-06-24T00:11:47.511Z,75.07
2018-06-24T00:12:47.476Z,75.45
2018-06-24T00:14:41.758Z,75.26
2018-06-24T00:15:41.710Z,75.45
2018-06-24T00:17:35.848Z,75.39
2018-06-24T00:18:35.847Z,75.20
2018-06-24T00:20:30.089Z,75.77
2018-06-24T00:21:30.009Z,75.68
2018-06-24T00:23:24.702Z,75.68
2018-06-24T00:24:24.692Z,75.68
2018-06-24T00:26:19.926Z,75.73
2018-06-24T00:27:19.856Z,76.21
2018-06-24T00:29:14.055Z,75.77
2018-06-24T00:30:14.050Z,76.50
2018-06-24T00:32:08.318Z,76.79
2018-06-24T00:33:08.199Z,76.21
2018-06-24T00:35:02.366Z,76.12
2018-06-24T00:36:02.397Z,76.06
2018-06-24T00:37:56.628Z,75.73
2018-06-24T00:38:56.563Z,76.40
2018-06-24T00:40:50.729Z,76.40
2018-06-24T00:41:50.736Z,76.79
2018-06-24T00:43:44.973Z,76.98
2018-06-24T00:44:44.918Z,76.98
2018-06-24T00:46:39.086Z,76.89
2018-06-24T00:47:39.106Z,77.26
2018-06-24T00:49:33.364Z,77.36
2018-06-24T00:50:33.249Z,77.46
2018-06-24T00:52:27.413Z,77.36
2018-06-24T00:53:27.446Z,77.46
2018-06-24T00:55:24.160Z,77.65
2018-06-24T00:56:24.130Z,77.17
2018-06-24T00:58:18.296Z,77.55
2018-06-24T00:59:18.292Z,77.94
2018-06-24T01:01:12.530Z,77.84
2018-06-24T01:02:12.477Z,77.94
2018-06-24T01:04:06.644Z,77.94
2018-06-24T01:05:06.649Z,78.03
2018-06-24T01:07:01.176Z,78.03
2018-06-24T01:08:00.817Z,78.70
2018-06-24T01:09:55.015Z,78.51
2018-06-24T01:10:54.999Z,78.99
2018-06-24T01:12:49.246Z,79.18
2018-06-24T01:13:49.205Z,79.47
2018-06-24T01:15:43.340Z,79.66
2018-06-24T01:16:43.332Z,79.57
2018-06-24T01:18:37.672Z,80.10
2018-06-24T01:19:37.490Z,80.14
2018-06-24T01:21:31.716Z,79.24
2018-06-24T01:22:31.710Z,79.24
2018-06-24T01:24:25.960Z,79.81
2018-06-24T01:25:25.864Z,80.00
2018-06-24T01:27:20.536Z,79.91
2018-06-24T01:28:20.522Z,80.00
2018-06-24T01:30:14.748Z,80.67
2018-06-24T01:31:14.670Z,80.10
2018-06-24T01:33:08.867Z,80.48
2018-06-24T01:34:08.836Z,80.38
2018-06-24T01:36:03.088Z,80.77
2018-06-24T01:37:03.136Z,80.77
2018-06-24T01:38:57.492Z,80.77
2018-06-24T01:39:57.186Z,80.29
2018-06-24T01:41:51.410Z,80.29
2018-06-24T01:42:51.384Z,80.38
2018-06-24T01:44:45.564Z,80.29
2018-06-24T01:45:45.584Z,80.67
2018-06-24T01:47:39.803Z,80.67
2018-06-24T01:48:39.700Z,79.72
2018-06-24T01:50:34.159Z,80.38
2018-06-24T01:51:33.869Z,80.38
2018-06-24T01:53:28.151Z,80.67
2018-06-24T01:54:28.068Z,81.34
2018-06-24T01:56:22.241Z,81.15
2018-06-24T01:57:22.247Z,81.34
2018-06-24T01:59:16.487Z,80.48
2018-06-24T02:00:16.425Z,81.15
2018-06-24T02:02:10.582Z,81.05
2018-06-24T02:03:10.588Z,81.15
2018-06-24T02:05:04.827Z,81.15
2018-06-24T02:06:04.760Z,81.15
2018-06-24T02:07:58.917Z,81.05
2018-06-24T02:08:58.927Z,81.15
2018-06-24T02:10:53.678Z,81.15
2018-06-24T02:11:53.617Z,80.96
2018-06-24T02:13:47.757Z,80.77
2018-06-24T02:14:47.767Z,80.77
2018-06-24T02:16:41.985Z,81.05
2018-06-24T02:17:41.927Z,80.67
2018-06-24T02:19:36.106Z,80.00
2018-06-24T02:20:36.129Z,79.43
2018-06-24T02:22:30.323Z,79.91
2018-06-24T02:23:30.281Z,80.48
2018-06-24T02:25:24.471Z,81.40
2018-06-24T02:26:24.513Z,81.40
2018-06-24T02:28:18.743Z,81.02
2018-06-24T02:29:18.633Z,81.49
2018-06-24T02:31:12.830Z,82.79
2018-06-24T02:32:12.787Z,83.56
2018-06-24T02:34:07.027Z,82.98
2018-06-24T02:35:06.987Z,82.45
2018-06-24T02:37:01.158Z,82.83
2018-06-24T02:38:01.135Z,82.26
2018-06-24T02:39:55.405Z,82.64
2018-06-24T02:40:55.318Z,83.27
2018-06-24T02:42:49.493Z,83.12
2018-06-24T02:43:49.493Z,83.03
2018-06-24T02:45:44.238Z,82.45
2018-06-24T02:46:44.155Z,82.83
2018-06-24T02:48:38.351Z,82.07
2018-06-24T02:49:38.323Z,82.26
2018-06-24T02:51:32.611Z,81.78
2018-06-24T02:52:33.167Z,82.07
2018-06-24T02:54:26.714Z,82.45
2018-06-24T02:55:27.496Z,82.45
2018-06-24T02:57:21.086Z,81.88
2018-06-24T02:58:20.884Z,82.17
2018-06-24T03:00:15.099Z,82.17
2018-06-24T03:01:18.744Z,82.54
2018-06-24T03:03:09.268Z,83.31
2018-06-24T03:04:10.644Z,82.83
2018-06-24T03:06:04.532Z,83.22
2018-06-24T03:07:04.231Z,83.12
2018-06-24T03:08:57.595Z,81.49
2018-06-24T03:09:57.660Z,81.68
2018-06-24T03:11:53.103Z,81.97
2018-06-24T03:12:52.136Z,82.17
2018-06-24T03:14:46.050Z,82.17
2018-06-24T03:15:49.995Z,82.17
2018-06-24T03:17:44.000Z,81.63
2018-06-24T03:18:40.177Z,82.20
2018-06-24T03:20:37.634Z,81.97
2018-06-24T03:21:36.292Z,82.20
2018-06-24T03:23:29.144Z,82.78
2018-06-24T03:24:29.376Z,82.01
2018-06-24T03:26:23.364Z,83.06
2018-06-24T03:27:23.264Z,81.97
2018-06-24T03:29:17.465Z,82.11
2018-06-24T03:30:17.450Z,81.68
2018-06-24T03:32:14.425Z,81.82
2018-06-24T03:33:11.614Z,81.88
2018-06-24T03:35:07.490Z,82.83
2018-06-24T03:36:05.910Z,81.97
2018-06-24T03:38:03.775Z,81.54
2018-06-24T03:39:01.133Z,81.73
2018-06-24T03:40:55.473Z,81.15
2018-06-24T03:41:55.017Z,81.82
2018-06-24T03:43:48.925Z,81.40
2018-06-24T03:44:50.048Z,82.11
2018-06-24T03:46:43.727Z,81.82
2018-06-24T03:47:44.071Z,81.49
2018-06-24T03:48:45.583Z,81.88
2018-06-24T03:49:44.195Z,81.30
2018-06-24T03:50:44.214Z,81.68
2018-06-24T03:51:43.727Z,81.78
2018-06-24T03:52:44.197Z,82.35
2018-06-24T03:53:44.200Z,81.68
2018-06-24T03:54:44.217Z,81.97
2018-06-24T03:55:44.201Z,82.17
2018-06-24T03:56:43.079Z,82.17
2018-06-24T03:57:43.747Z,82.54
2018-06-24T03:58:44.546Z,82.45
2018-06-24T03:59:44.185Z,82.45
2018-06-24T04:00:44.186Z,81.97
2018-06-24T04:01:44.190Z,82.45
2018-06-24T04:02:44.688Z,82.26
2018-06-24T04:03:44.203Z,82.17
2018-06-24T04:04:44.225Z,81.73
2018-06-24T04:05:44.687Z,82.11
2018-06-24T04:06:44.688Z,81.63
2018-06-24T04:07:44.707Z,82.01
2018-06-24T04:08:44.411Z,81.54
2018-06-24T04:09:44.432Z,81.63
2018-06-24T04:10:44.688Z,81.44
2018-06-24T04:11:44.424Z,82.07
2018-06-24T04:12:44.699Z,81.63
2018-06-24T04:13:44.689Z,81.54
2018-06-24T04:14:44.689Z,81.34
2018-06-24T04:15:46.694Z,81.15
2018-06-24T04:16:44.720Z,81.15
2018-06-24T04:17:44.697Z,80.48
2018-06-24T04:18:44.693Z,80.48
2018-06-24T04:19:44.707Z,81.05
2018-06-24T04:20:44.494Z,80.77
2018-06-24T04:21:44.694Z,80.67
2018-06-24T04:22:44.690Z,81.15
2018-06-24T04:23:44.693Z,81.54
2018-06-24T04:24:44.704Z,81.34
2018-06-24T04:25:44.803Z,81.63
2018-06-24T04:26:44.770Z,81.44
2018-06-24T04:27:44.721Z,81.73
2018-06-24T04:28:44.700Z,81.73
2018-06-24T04:29:44.703Z,81.15
2018-06-24T04:30:44.711Z,82.11
2018-06-24T04:31:44.211Z,81.44
2018-06-24T04:32:44.694Z,82.11
2018-06-24T04:33:45.802Z,81.63
2018-06-24T04:34:44.708Z,81.34
2018-06-24T04:35:44.204Z,81.54
2018-06-24T04:36:44.706Z,81.44
2018-06-24T04:37:44.695Z,81.44
2018-06-24T04:38:44.697Z,81.15
2018-06-24T04:39:44.772Z,81.73
2018-06-24T04:40:44.714Z,82.11
2018-06-24T04:41:46.729Z,81.54
2018-06-24T04:42:44.727Z,82.01
2018-06-24T04:43:44.715Z,82.01
2018-06-24T04:44:44.699Z,82.01
2018-06-24T04:45:44.494Z,81.92
2018-06-24T04:46:44.725Z,81.92
2018-06-24T04:47:44.707Z,82.49
2018-06-24T04:48:44.703Z,82.20
2018-06-24T04:49:44.423Z,82.97
2018-06-24T04:50:44.722Z,82.68
2018-06-24T04:51:44.737Z,83.12
2018-06-24T04:52:44.701Z,82.68
2018-06-24T04:53:44.206Z,82.20
2018-06-24T04:54:44.710Z,82.11
2018-06-24T04:55:44.716Z,82.20
2018-06-24T04:56:44.767Z,81.73
2018-06-24T04:57:44.765Z,81.82
2018-06-24T04:58:44.733Z,81.82
2018-06-24T04:59:44.719Z,82.01
2018-06-24T05:00:44.503Z,82.30
2018-06-24T05:01:44.443Z,82.40
2018-06-24T05:02:44.707Z,82.40
2018-06-24T05:03:44.714Z,82.20
2018-06-24T05:04:44.704Z,82.20
2018-06-24T05:05:44.734Z,81.44
2018-06-24T05:06:44.721Z,81.77
2018-06-24T05:07:44.708Z,82.01
2018-06-24T05:08:44.704Z,82.01
2018-06-24T05:09:44.751Z,81.82
2018-06-24T05:10:44.714Z,82.20
2018-06-24T05:11:44.712Z,82.20
2018-06-24T05:12:44.705Z,82.11
2018-06-24T05:13:44.498Z,82.20
2018-06-24T05:14:44.661Z,82.30
2018-06-24T05:15:44.707Z,82.30
2018-06-24T05:16:44.468Z,81.73
2018-06-24T05:17:44.707Z,81.92
2018-06-24T05:18:44.443Z,82.40
2018-06-24T05:19:44.447Z,82.30
2018-06-24T05:20:44.709Z,82.01
2018-06-24T05:21:44.708Z,82.11
2018-06-24T05:22:44.749Z,82.30
2018-06-24T05:23:44.742Z,82.40
2018-06-24T05:24:44.722Z,82.59
2018-06-24T05:25:44.210Z,82.20
2018-06-24T05:26:44.761Z,82.68
2018-06-24T05:27:44.722Z,82.87
2018-06-24T05:28:44.504Z,83.26
2018-06-24T05:29:44.721Z,82.20
2018-06-24T05:30:44.492Z,82.49
2018-06-24T05:31:44.720Z,82.68
2018-06-24T05:32:44.722Z,82.49
2018-06-24T05:33:44.752Z,83.06
2018-06-24T05:34:44.587Z,83.06
2018-06-24T05:35:44.721Z,83.16
2018-06-24T05:36:44.737Z,83.26
2018-06-24T05:37:44.581Z,83.36
2018-06-24T05:38:44.758Z,82.78
2018-06-24T05:39:44.229Z,82.87
2018-06-24T05:40:44.587Z,83.06
2018-06-24T05:41:44.513Z,83.06
2018-06-24T05:42:44.740Z,83.45
2018-06-24T05:43:44.758Z,83.16
2018-06-24T05:44:44.775Z,82.82
2018-06-24T05:45:44.231Z,82.43
2018-06-24T05:46:44.721Z,82.15
2018-06-24T05:47:44.716Z,82.15
2018-06-24T05:48:44.810Z,82.63
2018-06-24T05:49:44.766Z,82.15
2018-06-24T05:50:44.780Z,82.24
2018-06-24T05:51:44.232Z,82.34
2018-06-24T05:52:44.732Z,82.53
2018-06-24T05:53:44.459Z,82.24
2018-06-24T05:54:46.217Z,82.24
2018-06-24T05:55:45.998Z,82.43
2018-06-24T05:56:46.222Z,82.06
2018-06-24T05:57:46.221Z,82.63
2018-06-24T05:58:44.197Z,81.86
2018-06-24T05:59:46.219Z,82.34
2018-06-24T06:00:46.219Z,82.63
2018-06-24T06:01:46.271Z,82.34
2018-06-24T06:02:46.016Z,82.43
2018-06-24T06:03:44.728Z,82.24
2018-06-24T06:04:44.752Z,82.63
2018-06-24T06:05:43.886Z,81.96
2018-06-24T06:06:46.038Z,81.57
2018-06-24T06:07:44.221Z,81.86
2018-06-24T06:08:44.222Z,81.86
2018-06-24T06:09:44.261Z,82.15
2018-06-24T06:10:44.230Z,82.15
2018-06-24T06:11:44.677Z,82.15
2018-06-24T06:12:43.887Z,81.96
2018-06-24T06:13:44.231Z,81.77
2018-06-24T06:14:44.230Z,82.06
2018-06-24T06:15:44.238Z,82.15
2018-06-24T06:16:44.276Z,81.67
2018-06-24T06:17:44.224Z,81.67
2018-06-24T06:18:44.223Z,81.96
2018-06-24T06:19:44.226Z,81.23
2018-06-24T06:20:44.241Z,81.23
2018-06-24T06:21:44.230Z,81.48
2018-06-24T06:22:44.227Z,81.67
2018-06-24T06:23:44.228Z,81.77
2018-06-24T06:24:44.238Z,81.71
2018-06-24T06:25:44.339Z,82.06
2018-06-24T06:26:44.274Z,81.67
2018-06-24T06:27:44.222Z,81.67
2018-06-24T06:28:44.227Z,81.33
2018-06-24T06:29:44.250Z,80.71
2018-06-24T06:30:44.227Z,81.04
2018-06-24T06:31:44.247Z,81.29
2018-06-24T06:32:46.024Z,81.29
2018-06-24T06:33:44.245Z,80.71
2018-06-24T06:34:44.248Z,80.81
2018-06-24T06:35:44.578Z,80.90
2018-06-24T06:36:44.727Z,80.14
2018-06-24T06:37:43.900Z,80.43
2018-06-24T06:38:44.293Z,80.14
2018-06-24T06:39:44.260Z,80.33
2018-06-24T06:40:44.374Z,80.33
2018-06-24T06:41:44.232Z,80.52
2018-06-24T06:42:44.240Z,79.95
2018-06-24T06:43:44.607Z,80.43
2018-06-24T06:44:43.753Z,80.33
2018-06-24T06:45:44.453Z,79.75
2018-06-24T06:46:44.299Z,79.95
2018-06-24T06:47:44.250Z,79.99
2018-06-24T06:48:44.203Z,79.80
2018-06-24T06:49:44.242Z,79.89
2018-06-24T06:50:44.247Z,80.08
2018-06-24T06:51:44.263Z,79.99
2018-06-24T06:52:44.250Z,79.99
2018-06-24T06:53:44.247Z,80.18
2018-06-24T06:54:44.247Z,80.27
2018-06-24T06:55:44.159Z,79.80
2018-06-24T06:56:44.248Z,79.99
2018-06-24T06:57:44.623Z,79.99
2018-06-24T06:58:44.571Z,80.08
2018-06-24T06:59:44.562Z,79.51
2018-06-24T07:00:46.304Z,79.80
2018-06-24T07:01:44.241Z,79.60
2018-06-24T07:03:44.254Z,79.51
2018-06-24T07:04:44.656Z,79.03
2018-06-24T07:05:45.965Z,79.51
2018-06-24T07:06:44.252Z,78.36
2018-06-24T07:07:44.274Z,78.36
2018-06-24T07:08:46.018Z,78.45
2018-06-24T07:09:44.246Z,78.93
2018-06-24T07:10:44.255Z,78.27
2018-06-24T07:11:44.590Z,78.17
2018-06-24T07:12:43.743Z,78.55
2018-06-24T07:13:44.602Z,78.64
2018-06-24T07:14:43.760Z,79.51
2018-06-24T07:15:44.240Z,79.51
2018-06-24T07:16:44.183Z,78.84
2018-06-24T07:17:44.256Z,78.88
2018-06-24T07:18:44.260Z,78.64
2018-06-24T07:19:44.261Z,79.32
2018-06-24T07:20:44.265Z,78.78
2018-06-24T07:21:45.896Z,78.27
2018-06-24T07:22:44.245Z,78.07
2018-06-24T07:23:44.260Z,78.11
2018-06-24T07:24:44.244Z,77.88
2018-06-24T07:25:44.091Z,78.17
2018-06-24T07:26:44.257Z,78.07
2018-06-24T07:27:44.327Z,78.07
2018-06-24T07:28:44.257Z,78.45
2018-06-24T07:29:44.246Z,77.69
2018-06-24T07:30:44.315Z,78.07
2018-06-24T07:31:44.355Z,78.07
2018-06-24T07:32:43.759Z,78.30
2018-06-24T07:33:44.359Z,77.44
2018-06-24T07:34:44.310Z,77.25
2018-06-24T07:35:44.280Z,77.25
2018-06-24T07:36:44.284Z,76.77
2018-06-24T07:37:44.313Z,76.96
2018-06-24T07:38:44.353Z,76.67
2018-06-24T07:39:44.314Z,76.39
2018-06-24T07:40:44.053Z,76.39
2018-06-24T07:41:44.059Z,76.19
2018-06-24T07:42:44.317Z,75.81
2018-06-24T07:43:44.768Z,76.10
2018-06-24T07:44:43.755Z,76.39
2018-06-24T07:45:43.993Z,76.48
2018-06-24T07:46:44.263Z,75.81
2018-06-24T07:47:44.256Z,75.81
2018-06-24T07:48:44.340Z,77.06
2018-06-24T07:49:44.267Z,76.86
2018-06-24T07:50:44.067Z,76.10
2018-06-24T07:51:44.255Z,75.90
2018-06-24T07:52:44.255Z,76.00
2018-06-24T07:53:44.605Z,76.57
2018-06-24T07:54:44.360Z,76.19
2018-06-24T07:55:44.144Z,76.29
2018-06-24T07:56:44.300Z,76.29
2018-06-24T07:57:44.143Z,76.48
2018-06-24T07:58:44.254Z,75.90
2018-06-24T07:59:44.316Z,76.14
2018-06-24T08:01:44.254Z,76.04
2018-06-24T08:02:44.336Z,75.71
2018-06-24T08:03:44.159Z,75.90
2018-06-24T08:04:44.322Z,76.19
2018-06-24T08:05:44.105Z,75.75
2018-06-24T08:06:44.374Z,75.65
2018-06-24T08:07:44.333Z,75.27
2018-06-24T08:08:44.273Z,74.41
2018-06-24T08:09:46.737Z,74.18
2018-06-24T08:10:43.725Z,74.66
2018-06-24T08:11:44.038Z,75.23
2018-06-24T08:12:44.260Z,74.79
2018-06-24T08:13:44.274Z,74.41
2018-06-24T08:14:44.258Z,75.18
2018-06-24T08:15:44.317Z,74.89
2018-06-24T08:16:45.449Z,74.79
2018-06-24T08:17:44.619Z,74.85
2018-06-24T08:18:44.317Z,74.76
2018-06-24T08:19:44.129Z,74.85
2018-06-24T08:20:44.279Z,74.60
2018-06-24T08:21:44.592Z,74.12
2018-06-24T08:22:45.832Z,74.51
2018-06-24T08:23:44.278Z,74.57
2018-06-24T08:24:44.328Z,74.41
2018-06-24T08:25:44.580Z,74.27
2018-06-24T08:26:44.326Z,74.76
2018-06-24T08:27:44.293Z,74.51
2018-06-24T08:28:44.373Z,74.51
2018-06-24T08:29:44.613Z,74.41
2018-06-24T08:30:44.644Z,73.45
2018-06-24T08:31:43.882Z,73.35
2018-06-24T08:32:44.281Z,73.45
2018-06-24T08:33:44.267Z,73.35
2018-06-24T08:34:44.292Z,72.97
2018-06-24T08:35:44.267Z,73.16
2018-06-24T08:36:44.269Z,72.88
2018-06-24T08:37:44.286Z,73.16
2018-06-24T08:38:46.289Z,73.26
2018-06-24T08:39:43.797Z,73.35
2018-06-24T08:40:44.280Z,72.97
2018-06-24T08:41:44.379Z,72.97
2018-06-24T08:42:44.333Z,72.68
2018-06-24T08:43:44.370Z,72.20
2018-06-24T08:44:43.783Z,72.33
2018-06-24T08:45:44.276Z,72.68
2018-06-24T08:46:44.332Z,72.63
2018-06-24T08:47:44.283Z,72.72
2018-06-24T08:48:44.079Z,73.07
2018-06-24T08:49:44.326Z,72.30
2018-06-24T08:50:44.272Z,72.59
2018-06-24T08:51:46.313Z,72.01
2018-06-24T08:52:44.028Z,72.30
2018-06-24T08:53:44.351Z,71.57
2018-06-24T08:54:43.790Z,71.19
2018-06-24T08:55:43.802Z,71.28
2018-06-24T08:56:44.334Z,71.05
2018-06-24T08:57:43.791Z,71.44
2018-06-24T08:58:44.382Z,71.34
2018-06-24T08:59:44.323Z,71.09
2018-06-24T09:00:44.513Z,70.80
2018-06-24T09:01:44.335Z,71.28
2018-06-24T09:02:45.821Z,71.28
2018-06-24T09:03:44.326Z,71.37
2018-06-24T09:04:43.795Z,70.70
2018-06-24T09:05:44.145Z,70.23
2018-06-24T09:06:44.106Z,70.70
2018-06-24T09:07:44.351Z,70.90
2018-06-24T09:08:44.116Z,71.37
2018-06-24T09:09:44.291Z,71.19
2018-06-24T09:10:43.791Z,70.23
2018-06-24T09:11:44.313Z,70.19
2018-06-24T09:12:44.300Z,70.90
2018-06-24T09:13:44.532Z,71.19
2018-06-24T09:14:44.816Z,70.99
2018-06-24T09:15:44.085Z,71.57
2018-06-24T09:16:44.081Z,71.19
2018-06-24T09:17:44.342Z,71.37
2018-06-24T09:18:46.345Z,71.15
2018-06-24T09:19:44.360Z,71.66
2018-06-24T09:20:44.310Z,71.28
2018-06-24T09:21:44.343Z,71.37
2018-06-24T09:22:43.801Z,71.28
2018-06-24T09:23:44.123Z,70.70
2018-06-24T09:24:44.704Z,70.61
2018-06-24T09:25:44.395Z,71.37
2018-06-24T09:26:44.205Z,71.57
2018-06-24T09:27:44.373Z,71.15
2018-06-24T09:28:44.387Z,70.57
2018-06-24T09:29:45.796Z,70.57
2018-06-24T09:30:44.402Z,70.51
2018-06-24T09:31:44.143Z,70.86
2018-06-24T09:32:44.296Z,71.19
2018-06-24T09:33:44.795Z,71.09
2018-06-24T09:34:44.319Z,70.57
2018-06-24T09:35:44.324Z,71.34
2018-06-24T09:36:44.292Z,71.63
2018-06-24T09:37:44.139Z,71.15
2018-06-24T09:38:44.304Z,70.86
2018-06-24T09:39:44.300Z,70.96
2018-06-24T09:40:44.304Z,70.90
2018-06-24T09:41:44.312Z,70.38
2018-06-24T09:42:44.304Z,71.09
2018-06-24T09:43:44.301Z,71.57
2018-06-24T09:44:44.308Z,70.90
2018-06-24T09:45:44.303Z,69.93
2018-06-24T09:46:44.368Z,70.03
2018-06-24T09:47:44.073Z,70.32
2018-06-24T09:48:44.322Z,69.84
2018-06-24T09:49:44.483Z,69.65
2018-06-24T09:50:43.716Z,69.84
2018-06-24T09:51:44.312Z,70.32
2018-06-24T09:52:44.302Z,70.36
2018-06-24T09:53:44.369Z,70.32
2018-06-24T09:54:44.323Z,70.23
2018-06-24T09:55:44.405Z,70.90
2018-06-24T09:56:44.061Z,71.09
2018-06-24T09:57:44.180Z,71.19
2018-06-24T09:58:44.304Z,70.70
2018-06-24T09:59:44.156Z,71.19
2018-06-24T10:00:42.757Z,71.47
2018-06-24T10:01:43.855Z,71.37
2018-06-24T10:02:42.769Z,71.47
2018-06-24T10:03:42.742Z,71.19
2018-06-24T10:04:44.033Z,71.31
2018-06-24T10:05:42.743Z,70.26
2018-06-24T10:06:44.177Z,70.07
2018-06-24T10:07:44.312Z,69.87
2018-06-24T10:08:44.366Z,69.87
2018-06-24T10:09:44.151Z,70.17
2018-06-24T10:10:42.724Z,69.97
2018-06-24T10:11:42.740Z,69.87
2018-06-24T10:12:43.815Z,69.87
2018-06-24T10:13:42.729Z,70.74
2018-06-24T10:14:43.372Z,71.22
2018-06-24T10:15:46.309Z,70.26
2018-06-24T10:16:44.304Z,69.78
2018-06-24T10:17:43.743Z,70.26
2018-06-24T10:18:43.817Z,70.07
2018-06-24T10:19:43.537Z,70.45
2018-06-24T10:20:42.769Z,70.07
2018-06-24T10:21:44.070Z,70.17
2018-06-24T10:22:43.813Z,69.72
2018-06-24T10:23:42.893Z,70.17
2018-06-24T10:24:44.287Z,69.59
2018-06-24T10:25:42.722Z,71.22
2018-06-24T10:26:44.449Z,70.99
2018-06-24T10:27:43.823Z,70.80
2018-06-24T10:28:43.844Z,70.45
2018-06-24T10:29:46.755Z,70.45
2018-06-24T10:30:42.835Z,70.45
2018-06-24T10:31:43.447Z,70.64
2018-06-24T10:32:44.307Z,70.26
2018-06-24T10:33:42.716Z,70.93
2018-06-24T10:34:42.715Z,71.25
2018-06-24T10:35:42.796Z,71.73
2018-06-24T10:36:46.605Z,72.85
2018-06-24T10:37:42.719Z,72.60
2018-06-24T10:38:42.721Z,72.12
2018-06-24T10:39:42.754Z,71.45
2018-06-24T10:40:42.709Z,72.66
2018-06-24T10:41:42.738Z,73.62
2018-06-24T10:42:42.748Z,73.33
2018-06-24T10:43:42.710Z,74.68
2018-06-24T10:44:42.702Z,74.29
2018-06-24T10:45:42.710Z,75.50
2018-06-24T10:46:42.755Z,76.07
2018-06-24T10:47:42.716Z,76.98
2018-06-24T10:48:42.694Z,77.36
2018-06-24T10:49:42.716Z,78.32
2018-06-24T10:50:42.730Z,78.28
2018-06-24T10:51:42.779Z,77.90
2018-06-24T10:52:42.749Z,78.23
2018-06-24T10:53:42.769Z,78.90
2018-06-24T10:54:42.720Z,78.61
2018-06-24T10:55:42.743Z,78.61
2018-06-24T10:56:42.751Z,78.23
2018-06-24T10:57:42.719Z,77.36
2018-06-24T10:58:42.751Z,78.03
2018-06-24T10:59:42.745Z,79.28
2018-06-24T11:00:42.759Z,78.28
2018-06-24T11:01:42.745Z,77.46
2018-06-24T11:02:42.714Z,77.46
2018-06-24T11:03:42.722Z,78.03
2018-06-24T11:04:42.717Z,79.34
2018-06-24T11:05:42.745Z,79.67
2018-06-24T11:06:42.731Z,78.13
2018-06-24T11:07:42.727Z,77.46
2018-06-24T11:08:42.705Z,77.51
2018-06-24T11:09:42.733Z,78.13
2018-06-24T11:10:42.732Z,78.03
2018-06-24T11:11:42.711Z,77.36
2018-06-24T11:12:42.736Z,77.46
2018-06-24T11:13:42.798Z,79.47
2018-06-24T11:14:42.740Z,78.61
2018-06-24T11:15:42.764Z,79.63
2018-06-24T11:16:42.743Z,80.01
2018-06-24T11:17:42.721Z,77.90
2018-06-24T11:18:42.739Z,77.75
2018-06-24T11:19:42.717Z,77.26
2018-06-24T11:20:42.731Z,77.94
2018-06-24T11:21:42.966Z,78.55
2018-06-24T11:22:42.727Z,76.79
2018-06-24T11:23:42.750Z,77.36
2018-06-24T11:24:42.737Z,77.65
2018-06-24T11:25:42.793Z,77.36
2018-06-24T11:26:42.769Z,76.21
2018-06-24T11:27:42.746Z,76.56
2018-06-24T11:28:42.737Z,77.04
2018-06-24T11:29:42.759Z,76.31
2018-06-24T11:30:42.757Z,76.21
2018-06-24T11:31:42.739Z,75.82
2018-06-24T11:32:42.743Z,76.12
2018-06-24T11:33:42.765Z,76.27
2018-06-24T11:34:42.766Z,76.02
2018-06-24T11:35:42.753Z,75.82
2018-06-24T11:36:42.736Z,75.82
2018-06-24T11:37:42.751Z,75.21
2018-06-24T11:38:42.768Z,75.79
2018-06-24T11:39:42.775Z,74.58
2018-06-24T11:40:42.774Z,74.44
2018-06-24T11:41:42.735Z,74.48
2018-06-24T11:42:42.767Z,74.48
2018-06-24T11:43:42.742Z,74.48
2018-06-24T11:44:42.761Z,73.43
2018-06-24T11:45:42.739Z,73.62
2018-06-24T11:46:42.772Z,74.48
2018-06-24T11:47:42.778Z,75.35
2018-06-24T11:48:42.787Z,74.29
2018-06-24T11:49:42.750Z,73.81
2018-06-24T11:50:42.819Z,74.29
2018-06-24T11:51:42.793Z,73.52
2018-06-24T11:52:42.751Z,74.96
2018-06-24T11:53:42.753Z,74.48
2018-06-24T11:54:42.805Z,73.91
2018-06-24T11:55:42.799Z,73.43
2018-06-24T11:56:42.847Z,73.24
2018-06-24T11:57:42.757Z,73.43
2018-06-24T11:58:42.995Z,75.54
2018-06-24T11:59:42.770Z,75.06
2018-06-24T12:00:42.805Z,74.19
2018-06-24T12:01:42.803Z,74.10
2018-06-24T12:02:42.992Z,73.81
2018-06-24T12:03:42.765Z,74.58
2018-06-24T12:04:42.740Z,73.72
2018-06-24T12:05:42.792Z,74.01
2018-06-24T12:06:42.847Z,73.81
2018-06-24T12:07:42.800Z,73.52
2018-06-24T12:08:42.802Z,73.52
2018-06-24T12:09:42.775Z,74.19
2018-06-24T12:10:42.749Z,74.48
2018-06-24T12:11:42.793Z,74.04
2018-06-24T12:12:42.780Z,73.43
2018-06-24T12:13:42.779Z,74.16
2018-06-24T12:14:42.772Z,74.35
2018-06-24T12:15:42.771Z,74.19
2018-06-24T12:16:42.776Z,74.19
2018-06-24T12:17:42.809Z,74.01
2018-06-24T12:18:42.789Z,73.43
2018-06-24T12:19:42.779Z,73.52
2018-06-24T12:20:42.797Z,73.52
2018-06-24T12:21:42.779Z,73.24
2018-06-24T12:22:42.789Z,72.75
2018-06-24T12:23:42.783Z,72.66
2018-06-24T12:24:42.759Z,73.33
2018-06-24T12:25:42.768Z,73.04
2018-06-24T12:26:42.813Z,73.43
2018-06-24T12:27:42.790Z,73.46
2018-06-24T12:28:42.807Z,73.62
2018-06-24T12:29:42.797Z,73.62
2018-06-24T12:30:51.740Z,73.52
2018-06-24T12:32:37.033Z,73.52
2018-06-24T12:33:37.047Z,73.52
2018-06-24T12:35:31.134Z,73.43
2018-06-24T12:36:31.804Z,73.72
2018-06-24T12:38:25.374Z,73.77
2018-06-24T12:39:25.413Z,74.16
2018-06-24T12:41:20.393Z,74.83
2018-06-24T12:42:20.014Z,74.35
2018-06-24T12:44:14.524Z,74.58
2018-06-24T12:45:14.183Z,74.19
2018-06-24T12:47:08.384Z,73.52
2018-06-24T12:48:08.674Z,74.16
2018-06-24T12:50:02.604Z,73.97
2018-06-24T12:51:02.566Z,73.24
2018-06-24T12:52:56.740Z,74.44
2018-06-24T12:53:56.694Z,74.73
2018-06-24T12:56:26.765Z,75.40
2018-06-24T12:57:26.583Z,74.64
2018-06-24T12:59:21.360Z,74.58
2018-06-24T13:00:21.712Z,74.77
2018-06-24T13:02:15.503Z,74.29
2018-06-24T13:03:15.435Z,74.39
2018-06-24T13:05:09.614Z,75.15
2018-06-24T13:06:09.604Z,74.96
2018-06-24T13:08:04.345Z,74.48
2018-06-24T13:09:04.286Z,74.87
2018-06-24T13:10:58.465Z,74.29
2018-06-24T13:11:58.538Z,74.77
2018-06-24T13:13:52.689Z,75.79
2018-06-24T13:14:52.637Z,75.79
2018-06-24T13:16:46.876Z,75.45
2018-06-24T13:17:46.826Z,74.77
2018-06-24T13:19:41.055Z,75.70
2018-06-24T13:20:40.999Z,75.89
2018-06-24T13:22:35.203Z,76.27
2018-06-24T13:23:35.159Z,76.65
2018-06-24T13:25:29.436Z,76.27
2018-06-24T13:26:29.366Z,76.31
2018-06-24T13:28:23.586Z,76.21
2018-06-24T13:29:23.878Z,76.07
2018-06-24T13:31:17.713Z,75.82
2018-06-24T13:32:17.739Z,75.73
2018-06-24T13:34:11.848Z,76.65
2018-06-24T13:35:11.861Z,76.94
2018-06-24T13:37:06.084Z,77.33
2018-06-24T13:38:06.030Z,77.80
2018-06-24T13:40:00.238Z,76.94
2018-06-24T13:41:00.238Z,77.61
2018-06-24T13:42:54.459Z,77.71
2018-06-24T13:43:54.391Z,77.33
2018-06-24T13:45:48.579Z,77.23
2018-06-24T13:46:48.607Z,77.75
2018-06-24T13:48:43.357Z,77.13
2018-06-24T13:49:43.271Z,77.61
2018-06-24T13:51:37.473Z,77.84
2018-06-24T13:52:37.497Z,78.70
2018-06-24T13:54:31.742Z,78.67
2018-06-24T13:55:31.626Z,79.53
2018-06-24T13:57:25.829Z,79.82
2018-06-24T13:58:25.806Z,79.82
2018-06-24T14:00:32.795Z,79.63
2018-06-24T14:01:32.735Z,80.30
2018-06-24T14:03:26.975Z,80.20
2018-06-24T14:04:26.887Z,80.20
2018-06-24T14:06:21.157Z,80.01
2018-06-24T14:07:21.087Z,80.87
2018-06-24T14:09:15.311Z,81.54
2018-06-24T14:10:15.277Z,81.64
2018-06-24T14:12:10.018Z,81.64
2018-06-24T14:13:09.970Z,82.51
2018-06-24T14:15:04.117Z,83.27
2018-06-24T14:16:04.146Z,83.27
2018-06-24T14:17:58.396Z,85.00
2018-06-24T14:18:58.286Z,84.77
2018-06-24T14:20:52.550Z,84.67
2018-06-24T14:21:52.466Z,84.48
2018-06-24T14:23:46.707Z,84.58
2018-06-24T14:24:46.646Z,84.58
2018-06-24T14:26:40.970Z,83.85
2018-06-24T14:27:40.827Z,83.47
2018-06-24T14:29:35.077Z,83.56
2018-06-24T14:30:35.046Z,84.04
2018-06-24T14:32:29.177Z,84.71
2018-06-24T14:33:29.287Z,85.28
2018-06-24T14:35:23.686Z,84.71
2018-06-24T14:36:23.389Z,84.52
2018-06-24T14:38:17.540Z,84.81
2018-06-24T14:39:17.547Z,84.71
2018-06-24T14:41:12.020Z,83.37
2018-06-24T14:42:11.707Z,83.75
2018-06-24T14:44:06.461Z,83.94
2018-06-24T14:45:06.386Z,85.53
2018-06-24T14:47:00.656Z,86.30
2018-06-24T14:48:00.597Z,87.07